sensor_id;sensor_type;location;lat;lon;timestamp;pressure;altitude;pressure_sealevel;temperature;humidity
76819;BME280;65772;51.096;17.006;2023-04-01T00:02:28;98427.48;;;13.30;61.68
76819;BME280;65772;51.096;17.006;2023-04-01T00:04:59;98428.17;;;13.29;61.71
76819;BME280;65772;51.096;17.006;2023-04-01T00:07:30;98426.98;;;13.29;61.76
76819;BME280;65772;51.096;17.006;2023-04-01T00:10:02;98425.95;;;13.28;61.61
76819;BME280;65772;51.096;17.006;2023-04-01T00:12:33;98425.96;;;13.27;61.65
76819;BME280;65772;51.096;17.006;2023-04-01T00:15:05;98425.97;;;13.27;61.82
76819;BME280;65772;51.096;17.006;2023-04-01T00:17:36;98425.29;;;13.26;61.84
76819;BME280;65772;51.096;17.006;2023-04-01T00:20:09;98426.14;;;13.27;61.87
76819;BME280;65772;51.096;17.006;2023-04-01T00:22:40;98420.48;;;13.27;61.80
76819;BME280;65772;51.096;17.006;2023-04-01T00:25:11;98420.50;;;13.26;61.70
76819;BME280;65772;51.096;17.006;2023-04-01T00:27:42;98421.32;;;13.29;61.95
76819;BME280;65772;51.096;17.006;2023-04-01T00:30:13;98422.14;;;13.33;61.81
76819;BME280;65772;51.096;17.006;2023-04-01T00:32:44;98425.38;;;13.34;61.81
76819;BME280;65772;51.096;17.006;2023-04-01T00:35:15;98421.91;;;13.36;61.59
76819;BME280;65772;51.096;17.006;2023-04-01T00:37:46;98422.21;;;13.39;61.62
76819;BME280;65772;51.096;17.006;2023-04-01T00:40:26;98423.22;;;13.42;61.64
76819;BME280;65772;51.096;17.006;2023-04-01T00:42:57;98420.47;;;13.43;61.31
76819;BME280;65772;51.096;17.006;2023-04-01T00:45:32;98419.80;;;13.42;61.36
76819;BME280;65772;51.096;17.006;2023-04-01T00:48:07;98418.59;;;13.41;61.42
76819;BME280;65772;51.096;17.006;2023-04-01T00:50:40;98419.30;;;13.40;61.21
76819;BME280;65772;51.096;17.006;2023-04-01T00:53:13;98418.80;;;13.38;61.25
76819;BME280;65772;51.096;17.006;2023-04-01T00:55:48;98417.45;;;13.36;61.26
76819;BME280;65772;51.096;17.006;2023-04-01T00:58:23;98419.16;;;13.36;61.45
76819;BME280;65772;51.096;17.006;2023-04-01T01:00:55;98416.13;;;13.34;61.45
76819;BME280;65772;51.096;17.006;2023-04-01T01:03:27;98421.63;;;13.33;61.48
76819;BME280;65772;51.096;17.006;2023-04-01T01:06:16;98420.77;;;13.33;61.53
76819;BME280;65772;51.096;17.006;2023-04-01T01:09:05;98424.55;;;13.32;61.37
76819;BME280;65772;51.096;17.006;2023-04-01T01:11:39;98426.11;;;13.30;61.56
76819;BME280;65772;51.096;17.006;2023-04-01T01:14:22;98427.32;;;13.29;61.54
76819;BME280;65772;51.096;17.006;2023-04-01T01:17:02;98423.23;;;13.27;61.52
76819;BME280;65772;51.096;17.006;2023-04-01T01:20:07;98422.05;;;13.26;61.48
76819;BME280;65772;51.096;17.006;2023-04-01T01:23:04;98415.77;;;13.22;61.60
76819;BME280;65772;51.096;17.006;2023-04-01T01:25:43;98414.23;;;13.21;61.44
76819;BME280;65772;51.096;17.006;2023-04-01T01:28:33;98415.10;;;13.19;61.65
76819;BME280;65772;51.096;17.006;2023-04-01T01:31:15;98414.59;;;13.18;61.65
76819;BME280;65772;51.096;17.006;2023-04-01T01:33:59;98421.12;;;13.17;61.61
76819;BME280;65772;51.096;17.006;2023-04-01T01:36:36;98424.70;;;13.20;61.73
76819;BME280;65772;51.096;17.006;2023-04-01T01:39:11;98422.45;;;13.22;61.65
76819;BME280;65772;51.096;17.006;2023-04-01T01:41:43;98420.55;;;13.23;61.93
76819;BME280;65772;51.096;17.006;2023-04-01T01:44:17;98419.34;;;13.24;62.04
76819;BME280;65772;51.096;17.006;2023-04-01T01:46:49;98420.84;;;13.26;62.03
76819;BME280;65772;51.096;17.006;2023-04-01T01:49:20;98418.09;;;13.26;62.11
76819;BME280;65772;51.096;17.006;2023-04-01T01:51:51;98419.13;;;13.26;62.12
76819;BME280;65772;51.096;17.006;2023-04-01T01:54:21;98415.01;;;13.27;61.89
76819;BME280;65772;51.096;17.006;2023-04-01T01:56:57;98415.02;;;13.26;62.25
76819;BME280;65772;51.096;17.006;2023-04-01T01:59:33;98413.45;;;13.27;62.21
76819;BME280;65772;51.096;17.006;2023-04-01T02:02:07;98411.08;;;13.26;61.98
76819;BME280;65772;51.096;17.006;2023-04-01T02:04:41;98405.93;;;13.26;62.07
76819;BME280;65772;51.096;17.006;2023-04-01T02:07:18;98407.14;;;13.25;62.12
76819;BME280;65772;51.096;17.006;2023-04-01T02:09:51;98407.31;;;13.25;62.27
76819;BME280;65772;51.096;17.006;2023-04-01T02:12:23;98404.39;;;13.26;62.04
76819;BME280;65772;51.096;17.006;2023-04-01T02:14:58;98406.29;;;13.25;62.24
76819;BME280;65772;51.096;17.006;2023-04-01T02:17:35;98404.25;;;13.25;62.36
76819;BME280;65772;51.096;17.006;2023-04-01T02:20:12;98399.98;;;13.24;62.16
76819;BME280;65772;51.096;17.006;2023-04-01T02:22:48;98400.69;;;13.23;62.27
76819;BME280;65772;51.096;17.006;2023-04-01T02:25:22;98400.52;;;13.22;62.41
76819;BME280;65772;51.096;17.006;2023-04-01T02:27:55;98395.91;;;13.21;62.42
76819;BME280;65772;51.096;17.006;2023-04-01T02:30:28;98398.83;;;13.20;62.55
76819;BME280;65772;51.096;17.006;2023-04-01T02:33:00;98398.28;;;13.22;62.41
76819;BME280;65772;51.096;17.006;2023-04-01T02:35:34;98397.23;;;13.25;62.24
76819;BME280;65772;51.096;17.006;2023-04-01T02:38:06;98391.01;;;13.27;62.26
76819;BME280;65772;51.096;17.006;2023-04-01T02:40:45;98391.31;;;13.31;62.31
76819;BME280;65772;51.096;17.006;2023-04-01T02:43:17;98388.35;;;13.35;62.23
76819;BME280;65772;51.096;17.006;2023-04-01T02:45:50;98393.10;;;13.38;62.14
76819;BME280;65772;51.096;17.006;2023-04-01T02:48:20;98388.97;;;13.39;62.15
76819;BME280;65772;51.096;17.006;2023-04-01T02:50:51;98399.76;;;13.39;62.10
76819;BME280;65772;51.096;17.006;2023-04-01T02:53:22;98403.36;;;13.39;62.05
76819;BME280;65772;51.096;17.006;2023-04-01T02:55:52;98403.89;;;13.38;61.95
76819;BME280;65772;51.096;17.006;2023-04-01T02:58:23;98403.40;;;13.37;62.12
76819;BME280;65772;51.096;17.006;2023-04-01T03:00:53;98409.27;;;13.34;62.02
76819;BME280;65772;51.096;17.006;2023-04-01T03:03:24;98416.31;;;13.33;61.97
76819;BME280;65772;51.096;17.006;2023-04-01T03:05:55;98415.48;;;13.32;62.06
76819;BME280;65772;51.096;17.006;2023-04-01T03:08:27;98415.31;;;13.31;61.90
76819;BME280;65772;51.096;17.006;2023-04-01T03:10:58;98420.12;;;13.30;62.06
76819;BME280;65772;51.096;17.006;2023-04-01T03:13:29;98417.39;;;13.29;62.25
76819;BME280;65772;51.096;17.006;2023-04-01T03:16:00;98420.83;;;13.27;62.03
76819;BME280;65772;51.096;17.006;2023-04-01T03:18:31;98421.52;;;13.26;62.11
76819;BME280;65772;51.096;17.006;2023-04-01T03:21:15;98423.30;;;13.23;62.11
76819;BME280;65772;51.096;17.006;2023-04-01T03:23:46;98425.88;;;13.23;62.19
76819;BME280;65772;51.096;17.006;2023-04-01T03:26:17;98424.85;;;13.22;62.14
76819;BME280;65772;51.096;17.006;2023-04-01T03:28:47;98429.13;;;13.22;62.14
76819;BME280;65772;51.096;17.006;2023-04-01T03:31:18;98429.30;;;13.22;62.29
76819;BME280;65772;51.096;17.006;2023-04-01T03:33:53;98426.33;;;13.25;62.31
76819;BME280;65772;51.096;17.006;2023-04-01T03:36:24;98426.48;;;13.27;62.30
76819;BME280;65772;51.096;17.006;2023-04-01T03:38:54;98426.48;;;13.28;62.53
76819;BME280;65772;51.096;17.006;2023-04-01T03:41:29;98430.73;;;13.30;62.31
76819;BME280;65772;51.096;17.006;2023-04-01T03:44:01;98432.61;;;13.31;62.71
76819;BME280;65772;51.096;17.006;2023-04-01T03:46:31;98433.80;;;13.32;62.58
76819;BME280;65772;51.096;17.006;2023-04-01T03:49:02;98431.58;;;13.32;62.86
76819;BME280;65772;51.096;17.006;2023-04-01T03:51:33;98429.39;;;13.29;62.72
76819;BME280;65772;51.096;17.006;2023-04-01T03:54:04;98433.99;;;13.30;62.89
76819;BME280;65772;51.096;17.006;2023-04-01T03:56:35;98438.13;;;13.28;63.18
76819;BME280;65772;51.096;17.006;2023-04-01T03:59:07;98437.80;;;13.27;63.12
76819;BME280;65772;51.096;17.006;2023-04-01T04:01:38;98438.84;;;13.26;63.27
76819;BME280;65772;51.096;17.006;2023-04-01T04:04:10;98438.83;;;13.26;63.11
76819;BME280;65772;51.096;17.006;2023-04-01T04:06:41;98443.83;;;13.24;63.57
76819;BME280;65772;51.096;17.006;2023-04-01T04:09:12;98444.90;;;13.22;63.38
76819;BME280;65772;51.096;17.006;2023-04-01T04:11:42;98447.66;;;13.19;63.33
76819;BME280;65772;51.096;17.006;2023-04-01T04:14:13;98449.69;;;13.23;63.63
76819;BME280;65772;51.096;17.006;2023-04-01T04:16:44;98449.31;;;13.24;63.48
76819;BME280;65772;51.096;17.006;2023-04-01T04:19:15;98451.19;;;13.24;63.60
76819;BME280;65772;51.096;17.006;2023-04-01T04:21:45;98452.77;;;13.23;63.97
76819;BME280;65772;51.096;17.006;2023-04-01T04:24:16;98453.12;;;13.23;63.92
76819;BME280;65772;51.096;17.006;2023-04-01T04:27:01;98454.14;;;13.23;64.06
76819;BME280;65772;51.096;17.006;2023-04-01T04:29:32;98459.30;;;13.21;64.08
76819;BME280;65772;51.096;17.006;2023-04-01T04:32:02;98455.38;;;13.17;64.33
76819;BME280;65772;51.096;17.006;2023-04-01T04:34:34;98458.32;;;13.15;64.47
76819;BME280;65772;51.096;17.006;2023-04-01T04:37:05;98454.23;;;13.12;64.52
76819;BME280;65772;51.096;17.006;2023-04-01T04:39:35;98452.87;;;13.10;64.88
76819;BME280;65772;51.096;17.006;2023-04-01T04:42:06;98452.56;;;13.06;64.74
76819;BME280;65772;51.096;17.006;2023-04-01T04:44:37;98456.89;;;13.03;65.06
76819;BME280;65772;51.096;17.006;2023-04-01T04:47:09;98453.84;;;13.01;65.16
76819;BME280;65772;51.096;17.006;2023-04-01T04:49:40;98458.23;;;13.04;65.29
76819;BME280;65772;51.096;17.006;2023-04-01T04:52:11;98459.76;;;13.07;65.45
76819;BME280;65772;51.096;17.006;2023-04-01T04:54:41;98456.66;;;13.08;65.30
76819;BME280;65772;51.096;17.006;2023-04-01T04:57:12;98458.70;;;13.10;65.46
76819;BME280;65772;51.096;17.006;2023-04-01T04:59:48;98460.92;;;13.10;65.45
76819;BME280;65772;51.096;17.006;2023-04-01T05:02:30;98461.62;;;13.10;65.52
76819;BME280;65772;51.096;17.006;2023-04-01T05:05:01;98466.07;;;13.09;65.73
76819;BME280;65772;51.096;17.006;2023-04-01T05:07:32;98467.27;;;13.09;65.74
76819;BME280;65772;51.096;17.006;2023-04-01T05:10:03;98467.29;;;13.07;65.87
76819;BME280;65772;51.096;17.006;2023-04-01T05:12:35;98467.80;;;13.07;65.66
76819;BME280;65772;51.096;17.006;2023-04-01T05:15:11;98469.19;;;13.06;65.78
76819;BME280;65772;51.096;17.006;2023-04-01T05:17:42;98470.73;;;13.05;65.97
76819;BME280;65772;51.096;17.006;2023-04-01T05:20:14;98469.71;;;13.04;65.80
76819;BME280;65772;51.096;17.006;2023-04-01T05:22:45;98469.40;;;13.02;66.07
76819;BME280;65772;51.096;17.006;2023-04-01T05:25:16;98470.94;;;13.04;65.86
76819;BME280;65772;51.096;17.006;2023-04-01T05:27:47;98469.17;;;13.07;66.01
76819;BME280;65772;51.096;17.006;2023-04-01T05:30:18;98471.05;;;13.08;66.10
76819;BME280;65772;51.096;17.006;2023-04-01T05:33:10;98470.18;;;13.10;66.08
76819;BME280;65772;51.096;17.006;2023-04-01T05:35:41;98470.86;;;13.10;66.07
76819;BME280;65772;51.096;17.006;2023-04-01T05:38:12;98472.06;;;13.10;66.24
76819;BME280;65772;51.096;17.006;2023-04-01T05:40:43;98472.92;;;13.09;66.19
76819;BME280;65772;51.096;17.006;2023-04-01T05:43:14;98472.41;;;13.09;66.15
76819;BME280;65772;51.096;17.006;2023-04-01T05:45:45;98476.52;;;13.09;66.13
76819;BME280;65772;51.096;17.006;2023-04-01T05:48:15;98471.56;;;13.07;66.12
76819;BME280;65772;51.096;17.006;2023-04-01T05:50:46;98473.81;;;13.05;66.39
76819;BME280;65772;51.096;17.006;2023-04-01T05:53:17;98471.77;;;13.05;66.41
76819;BME280;65772;51.096;17.006;2023-04-01T05:55:47;98470.89;;;13.07;66.66
76819;BME280;65772;51.096;17.006;2023-04-01T05:58:18;98472.94;;;13.08;66.81
76819;BME280;65772;51.096;17.006;2023-04-01T06:00:48;98474.65;;;13.08;66.53
76819;BME280;65772;51.096;17.006;2023-04-01T06:03:36;98479.78;;;13.08;66.57
76819;BME280;65772;51.096;17.006;2023-04-01T06:06:13;98483.73;;;13.08;66.57
76819;BME280;65772;51.096;17.006;2023-04-01T06:08:45;98480.32;;;13.06;66.56
76819;BME280;65772;51.096;17.006;2023-04-01T06:11:25;98483.23;;;13.05;66.77
76819;BME280;65772;51.096;17.006;2023-04-01T06:14:14;98483.60;;;13.04;66.86
76819;BME280;65772;51.096;17.006;2023-04-01T06:16:58;98486.34;;;13.03;67.09
76819;BME280;65772;51.096;17.006;2023-04-01T06:19:38;98492.66;;;13.05;66.86
76819;BME280;65772;51.096;17.006;2023-04-01T06:22:29;98493.50;;;13.07;66.93
76819;BME280;65772;51.096;17.006;2023-04-01T06:25:20;98494.88;;;13.06;66.80
76819;BME280;65772;51.096;17.006;2023-04-01T06:28:20;98498.48;;;13.06;67.00
76819;BME280;65772;51.096;17.006;2023-04-01T06:31:05;98499.52;;;13.04;66.84
76819;BME280;65772;51.096;17.006;2023-04-01T06:33:52;98500.02;;;13.04;67.02
76819;BME280;65772;51.096;17.006;2023-04-01T06:36:52;98498.31;;;13.05;67.09
76819;BME280;65772;51.096;17.006;2023-04-01T06:39:45;98502.08;;;13.05;67.24
76819;BME280;65772;51.096;17.006;2023-04-01T06:42:38;98504.14;;;13.04;67.54
76819;BME280;65772;51.096;17.006;2023-04-01T06:45:39;98507.70;;;13.08;67.74
76819;BME280;65772;51.096;17.006;2023-04-01T06:48:47;98508.54;;;13.11;67.70
76819;BME280;65772;51.096;17.006;2023-04-01T06:51:47;98506.30;;;13.12;67.75
76819;BME280;65772;51.096;17.006;2023-04-01T06:54:46;98506.45;;;13.17;68.00
76819;BME280;65772;51.096;17.006;2023-04-01T06:57:41;98505.40;;;13.18;67.94
76819;BME280;65772;51.096;17.006;2023-04-01T07:00:17;98506.23;;;13.22;68.10
76819;BME280;65772;51.096;17.006;2023-04-01T07:02:55;98506.37;;;13.25;68.06
76819;BME280;65772;51.096;17.006;2023-04-01T07:05:33;98509.74;;;13.29;68.14
76819;BME280;65772;51.096;17.006;2023-04-01T07:08:08;98512.97;;;13.33;67.99
76819;BME280;65772;51.096;17.006;2023-04-01T07:10:45;98514.27;;;13.38;68.18
76819;BME280;65772;51.096;17.006;2023-04-01T07:13:39;98515.09;;;13.42;68.32
76819;BME280;65772;51.096;17.006;2023-04-01T07:16:21;98514.01;;;13.46;68.49
76819;BME280;65772;51.096;17.006;2023-04-01T07:18:58;98516.89;;;13.47;68.13
76819;BME280;65772;51.096;17.006;2023-04-01T07:21:45;98516.23;;;13.46;67.99
76819;BME280;65772;51.096;17.006;2023-04-01T07:24:27;98520.05;;;13.43;67.86
76819;BME280;65772;51.096;17.006;2023-04-01T07:27:10;98527.11;;;13.39;67.91
76819;BME280;65772;51.096;17.006;2023-04-01T07:29:42;98521.28;;;13.39;67.82
76819;BME280;65772;51.096;17.006;2023-04-01T07:32:22;98524.53;;;13.40;67.92
76819;BME280;65772;51.096;17.006;2023-04-01T07:35:09;98524.55;;;13.39;67.99
76819;BME280;65772;51.096;17.006;2023-04-01T07:37:56;98524.02;;;13.39;67.80
76819;BME280;65772;51.096;17.006;2023-04-01T07:40:34;98526.42;;;13.39;67.93
76819;BME280;65772;51.096;17.006;2023-04-01T07:46:36;98533.08;;;13.42;67.82
76819;BME280;65772;51.096;17.006;2023-04-01T07:49:15;98534.29;;;13.41;67.50
76819;BME280;65772;51.096;17.006;2023-04-01T07:51:54;98533.28;;;13.39;67.68
76819;BME280;65772;51.096;17.006;2023-04-01T07:54:34;98540.00;;;13.36;67.71
76819;BME280;65772;51.096;17.006;2023-04-01T07:57:14;98536.11;;;13.33;67.68
76819;BME280;65772;51.096;17.006;2023-04-01T07:59:57;98539.86;;;13.34;67.59
76819;BME280;65772;51.096;17.006;2023-04-01T08:02:53;98544.64;;;13.35;67.82
76819;BME280;65772;51.096;17.006;2023-04-01T08:05:29;98543.45;;;13.35;67.84
76819;BME280;65772;51.096;17.006;2023-04-01T08:08:11;98547.70;;;13.36;67.89
76819;BME280;65772;51.096;17.006;2023-04-01T08:11:25;98552.65;;;13.39;68.03
76819;BME280;65772;51.096;17.006;2023-04-01T08:14:24;98552.31;;;13.37;68.16
76819;BME280;65772;51.096;17.006;2023-04-01T08:17:35;98558.14;;;13.38;68.24
76819;BME280;65772;51.096;17.006;2023-04-01T08:20:21;98557.29;;;13.37;68.19
76819;BME280;65772;51.096;17.006;2023-04-01T08:22:58;98555.38;;;13.39;67.85
76819;BME280;65772;51.096;17.006;2023-04-01T08:25:39;98557.24;;;13.42;68.06
76819;BME280;65772;51.096;17.006;2023-04-01T08:28:17;98556.58;;;13.41;67.89
76819;BME280;65772;51.096;17.006;2023-04-01T08:30:53;98559.67;;;13.39;67.93
76819;BME280;65772;51.096;17.006;2023-04-01T08:33:28;98562.58;;;13.39;67.98
76819;BME280;65772;51.096;17.006;2023-04-01T08:36:08;98561.05;;;13.38;68.00
76819;BME280;65772;51.096;17.006;2023-04-01T08:38:43;98561.05;;;13.37;67.97
76819;BME280;65772;51.096;17.006;2023-04-01T08:41:28;98561.05;;;13.39;67.98
76819;BME280;65772;51.096;17.006;2023-04-01T08:44:35;98567.03;;;13.40;68.08
76819;BME280;65772;51.096;17.006;2023-04-01T08:47:24;98565.81;;;13.43;67.98
76819;BME280;65772;51.096;17.006;2023-04-01T08:53:33;98566.25;;;13.49;68.09
76819;BME280;65772;51.096;17.006;2023-04-01T08:56:14;98567.95;;;13.51;67.71
76819;BME280;65772;51.096;17.006;2023-04-01T09:02:19;98567.08;;;13.51;67.96
76819;BME280;65772;51.096;17.006;2023-04-01T09:05:18;98571.05;;;13.49;67.93
76819;BME280;65772;51.096;17.006;2023-04-01T09:08:00;98569.34;;;13.48;67.76
76819;BME280;65772;51.096;17.006;2023-04-01T09:10:57;98568.13;;;13.49;67.45
76819;BME280;65772;51.096;17.006;2023-04-01T09:14:09;98568.07;;;13.55;67.37
76819;BME280;65772;51.096;17.006;2023-04-01T09:17:16;98575.03;;;13.61;67.42
76819;BME280;65772;51.096;17.006;2023-04-01T09:20:02;98582.73;;;13.63;67.21
76819;BME280;65772;51.096;17.006;2023-04-01T09:22:48;98583.73;;;13.65;66.89
76819;BME280;65772;51.096;17.006;2023-04-01T09:25:44;98586.83;;;13.65;66.56
76819;BME280;65772;51.096;17.006;2023-04-01T09:28:20;98591.30;;;13.64;66.78
76819;BME280;65772;51.096;17.006;2023-04-01T09:34:21;98588.59;;;13.59;66.67
76819;BME280;65772;51.096;17.006;2023-04-01T09:40:16;98590.61;;;13.64;67.06
76819;BME280;65772;51.096;17.006;2023-04-01T09:43:04;98598.42;;;13.69;66.98
76819;BME280;65772;51.096;17.006;2023-04-01T09:45:46;98597.03;;;13.71;66.59
76819;BME280;65772;51.096;17.006;2023-04-01T09:48:39;98593.08;;;13.73;66.56
76819;BME280;65772;51.096;17.006;2023-04-01T09:51:26;98593.70;;;13.77;66.22
76819;BME280;65772;51.096;17.006;2023-04-01T09:54:10;98590.59;;;13.78;66.22
76819;BME280;65772;51.096;17.006;2023-04-01T09:57:00;98593.66;;;13.80;66.43
76819;BME280;65772;51.096;17.006;2023-04-01T10:05:59;98597.76;;;13.82;66.07
76819;BME280;65772;51.096;17.006;2023-04-01T10:15:18;98602.98;;;13.75;64.94
76819;BME280;65772;51.096;17.006;2023-04-01T10:21:22;98602.46;;;13.76;64.67
76819;BME280;65772;51.096;17.006;2023-04-01T10:23:59;98604.98;;;13.80;64.97
76819;BME280;65772;51.096;17.006;2023-04-01T10:36:47;98599.29;;;13.84;64.26
76819;BME280;65772;51.096;17.006;2023-04-01T10:39:34;98597.92;;;13.83;63.91
76819;BME280;65772;51.096;17.006;2023-04-01T10:43:02;98606.50;;;13.83;64.01
76819;BME280;65772;51.096;17.006;2023-04-01T10:46:03;98609.23;;;13.84;64.42
76819;BME280;65772;51.096;17.006;2023-04-01T10:55:34;98616.64;;;13.80;63.87
76819;BME280;65772;51.096;17.006;2023-04-01T10:58:51;98618.19;;;13.80;63.86
76819;BME280;65772;51.096;17.006;2023-04-01T11:02:15;98624.88;;;13.80;64.18
76819;BME280;65772;51.096;17.006;2023-04-01T11:05:35;98626.73;;;13.84;64.45
76819;BME280;65772;51.096;17.006;2023-04-01T11:14:56;98630.54;;;13.97;64.42
76819;BME280;65772;51.096;17.006;2023-04-01T11:17:48;98626.69;;;14.02;64.37
76819;BME280;65772;51.096;17.006;2023-04-01T11:20:44;98625.95;;;14.06;64.57
76819;BME280;65772;51.096;17.006;2023-04-01T11:23:34;98633.45;;;14.09;64.84
76819;BME280;65772;51.096;17.006;2023-04-01T11:26:26;98631.19;;;14.11;65.10
76819;BME280;65772;51.096;17.006;2023-04-01T11:29:24;98637.86;;;14.13;65.22
76819;BME280;65772;51.096;17.006;2023-04-01T11:32:11;98635.30;;;14.12;65.41
76819;BME280;65772;51.096;17.006;2023-04-01T11:34:59;98643.20;;;14.12;65.50
76819;BME280;65772;51.096;17.006;2023-04-01T11:37:40;98643.53;;;14.12;65.45
76819;BME280;65772;51.096;17.006;2023-04-01T11:40:40;98646.97;;;14.12;65.50
76819;BME280;65772;51.096;17.006;2023-04-01T11:43:46;98649.89;;;14.13;65.49
76819;BME280;65772;51.096;17.006;2023-04-01T11:46:52;98651.77;;;14.14;65.57
76819;BME280;65772;51.096;17.006;2023-04-01T11:49:39;98656.56;;;14.14;65.43
76819;BME280;65772;51.096;17.006;2023-04-01T11:55:22;98655.02;;;14.14;65.18
76819;BME280;65772;51.096;17.006;2023-04-01T11:58:12;98659.14;;;14.13;64.98
76819;BME280;65772;51.096;17.006;2023-04-01T12:01:10;98657.43;;;14.12;65.26
76819;BME280;65772;51.096;17.006;2023-04-01T12:03:54;98660.87;;;14.12;65.19
76819;BME280;65772;51.096;17.006;2023-04-01T12:06:38;98666.71;;;14.11;65.14
76819;BME280;65772;51.096;17.006;2023-04-01T12:09:19;98669.95;;;14.13;65.13
76819;BME280;65772;51.096;17.006;2023-04-01T12:12:03;98674.75;;;14.15;64.78
76819;BME280;65772;51.096;17.006;2023-04-01T12:14:44;98678.33;;;14.17;64.90
76819;BME280;65772;51.096;17.006;2023-04-01T12:17:19;98677.63;;;14.18;65.15
76819;BME280;65772;51.096;17.006;2023-04-01T12:20:01;98674.36;;;14.19;65.38
76819;BME280;65772;51.096;17.006;2023-04-01T12:22:46;98669.68;;;14.21;65.41
76819;BME280;65772;51.096;17.006;2023-04-01T12:25:29;98669.15;;;14.23;65.58
76819;BME280;65772;51.096;17.006;2023-04-01T12:28:18;98673.59;;;14.25;65.77
76819;BME280;65772;51.096;17.006;2023-04-01T12:30:59;98675.30;;;14.26;65.87
76819;BME280;65772;51.096;17.006;2023-04-01T12:34:00;98676.32;;;14.27;65.78
76819;BME280;65772;51.096;17.006;2023-04-01T12:36:42;98674.42;;;14.28;65.53
76819;BME280;65772;51.096;17.006;2023-04-01T12:39:44;98672.52;;;14.30;65.84
76819;BME280;65772;51.096;17.006;2023-04-01T12:42:27;98673.84;;;14.32;65.86
76819;BME280;65772;51.096;17.006;2023-04-01T12:45:14;98675.02;;;14.33;65.67
76819;BME280;65772;51.096;17.006;2023-04-01T12:48:14;98675.70;;;14.34;66.08
76819;BME280;65772;51.096;17.006;2023-04-01T12:57:34;98687.64;;;14.41;65.53
76819;BME280;65772;51.096;17.006;2023-04-01T13:00:38;98683.17;;;14.42;65.02
76819;BME280;65772;51.096;17.006;2023-04-01T13:03:25;98680.94;;;14.43;64.83
76819;BME280;65772;51.096;17.006;2023-04-01T13:06:07;98682.99;;;14.42;64.85
76819;BME280;65772;51.096;17.006;2023-04-01T13:08:55;98685.27;;;14.41;64.62
76819;BME280;65772;51.096;17.006;2023-04-01T13:11:37;98688.38;;;14.39;64.75
76819;BME280;65772;51.096;17.006;2023-04-01T13:14:31;98693.36;;;14.38;64.63
76819;BME280;65772;51.096;17.006;2023-04-01T13:17:12;98703.30;;;14.38;64.87
76819;BME280;65772;51.096;17.006;2023-04-01T13:19:51;98703.64;;;14.38;65.06
76819;BME280;65772;51.096;17.006;2023-04-01T13:22:45;98709.31;;;14.40;65.07
76819;BME280;65772;51.096;17.006;2023-04-01T13:25:26;98709.98;;;14.40;65.45
76819;BME280;65772;51.096;17.006;2023-04-01T13:28:05;98718.06;;;14.38;65.48
76819;BME280;65772;51.096;17.006;2023-04-01T13:30:44;98723.41;;;14.40;65.68
76819;BME280;65772;51.096;17.006;2023-04-01T13:33:24;98724.25;;;14.38;65.95
76819;BME280;65772;51.096;17.006;2023-04-01T13:36:10;98725.98;;;14.36;65.96
76819;BME280;65772;51.096;17.006;2023-04-01T13:39:09;98727.23;;;14.32;66.22
76819;BME280;65772;51.096;17.006;2023-04-01T13:41:58;98729.66;;;14.30;66.69
76819;BME280;65772;51.096;17.006;2023-04-01T13:44:35;98730.66;;;14.31;66.46
76819;BME280;65772;51.096;17.006;2023-04-01T13:50:45;98729.66;;;14.30;66.38
76819;BME280;65772;51.096;17.006;2023-04-01T13:53:32;98731.88;;;14.31;66.53
76819;BME280;65772;51.096;17.006;2023-04-01T13:56:29;98736.48;;;14.32;66.05
76819;BME280;65772;51.096;17.006;2023-04-01T13:59:41;98738.89;;;14.33;65.78
76819;BME280;65772;51.096;17.006;2023-04-01T14:02:31;98736.64;;;14.34;65.65
76819;BME280;65772;51.096;17.006;2023-04-01T14:05:23;98739.05;;;14.33;65.70
76819;BME280;65772;51.096;17.006;2023-04-01T14:08:20;98738.55;;;14.32;64.99
76819;BME280;65772;51.096;17.006;2023-04-01T14:11:06;98741.00;;;14.29;64.42
76819;BME280;65772;51.096;17.006;2023-04-01T14:13:47;98740.17;;;14.26;64.13
76819;BME280;65772;51.096;17.006;2023-04-01T14:16:38;98740.02;;;14.23;64.42
76819;BME280;65772;51.096;17.006;2023-04-01T14:19:20;98736.48;;;14.19;64.58
76819;BME280;65772;51.096;17.006;2023-04-01T14:22:02;98736.87;;;14.14;64.29
76819;BME280;65772;51.096;17.006;2023-04-01T14:24:51;98736.69;;;14.16;64.28
76819;BME280;65772;51.096;17.006;2023-04-01T14:27:34;98736.49;;;14.18;64.11
76819;BME280;65772;51.096;17.006;2023-04-01T14:30:20;98743.36;;;14.18;64.24
76819;BME280;65772;51.096;17.006;2023-04-01T14:33:03;98740.97;;;14.17;64.34
76819;BME280;65772;51.096;17.006;2023-04-01T14:35:41;98744.24;;;14.15;64.27
76819;BME280;65772;51.096;17.006;2023-04-01T14:38:37;98750.25;;;14.14;64.55
76819;BME280;65772;51.096;17.006;2023-04-01T14:41:15;98750.44;;;14.13;64.70
76819;BME280;65772;51.096;17.006;2023-04-01T14:44:04;98749.76;;;14.13;64.66
76819;BME280;65772;51.096;17.006;2023-04-01T14:46:55;98750.77;;;14.13;64.82
76819;BME280;65772;51.096;17.006;2023-04-01T14:49:35;98751.63;;;14.14;64.99
76819;BME280;65772;51.096;17.006;2023-04-01T14:52:13;98753.52;;;14.14;65.06
76819;BME280;65772;51.096;17.006;2023-04-01T14:54:48;98756.62;;;14.13;64.83
76819;BME280;65772;51.096;17.006;2023-04-01T14:57:24;98757.13;;;14.14;65.14
76819;BME280;65772;51.096;17.006;2023-04-01T15:00:07;98758.64;;;14.17;65.45
76819;BME280;65772;51.096;17.006;2023-04-01T15:02:46;98762.55;;;14.20;65.51
76819;BME280;65772;51.096;17.006;2023-04-01T15:05:31;98760.13;;;14.21;65.68
76819;BME280;65772;51.096;17.006;2023-04-01T15:08:09;98763.21;;;14.22;65.89
76819;BME280;65772;51.096;17.006;2023-04-01T15:10:53;98760.27;;;14.24;65.63
76819;BME280;65772;51.096;17.006;2023-04-01T15:13:41;98765.40;;;14.26;65.77